Cold Bay, AK (99571)

9:23 AM AKDT on September 05, 2015 (GMT -0800)
Cold Bay | | Change Station
CLOSE
Current Station
Airport
Location: Cold Bay,
Elevation: 102 ft
Nearby Weather Stations

Elev 102 ft 55.22 °N, 162.73 °W | Updated 12 minutes ago

Overcast
Overcast
50 °F
Feels Like 50 °F
N
7
Wind Variable Wind from WSW

Today
High -- | Low -- °F
--% Chance of Precip.
Yesterday
High -- | Low -- °F
Precip. -- in
8:04 AM 9:33 PM
Waning Gibbous, 47% visible
Pressure 29.99 in
Visibility 10.0 miles
Clouds Few 900 ft
Mostly Cloudy 1500 ft
Overcast 6000 ft
Dew Point 49 °F
Humidity 96%
Rainfall 0.01 in
Snow Depth Not available.
UV 0 out of 12
Pollen Not available.
Air Quality Not available.
Flu Activity Not available.
SPECI PACD 051711Z 25006KT 10SM FEW009 BKN015 OVC060 10/09 A2999 RMK AO2 T01000094
Pressure 29.99 in
Visibility 10.0 miles
Clouds Few 900 ft
Mostly Cloudy 1500 ft
Overcast 6000 ft
Dew Point 49 °F
Humidity 96%
Rainfall 0.01 in
Snow Depth Not available.
UV 0 out of 12
Pollen Not available.
Air Quality Not available.
Flu Activity Not available.
SPECI PACD 051711Z 25006KT 10SM FEW009 BKN015 OVC060 10/09 A2999 RMK AO2 T01000094

10-Day Weather Forecast

×

Almanac

Astronomy

Sep. 05, 2015 Rise Set
Actual Time
Civil Twilight
Nautical Twilight
Astronomical Twilight
Moon
Length of Visible Light
Length of Day
Tomorrow will be .
, % of the Moon is Illuminated

Today's Extremes

State Highs State Lows

Community

WunderPhotos

Upload Photos

1,852,506 photos uploaded!

WunderBlogs® & News

Nearby

Air Quality

  Air Quality AQ Index Pollutant
Not available.

Snow Depth

Station Depth Elevation

Earthquake Activity

City Distance Mag. Time & Date
Minimum magnitude displayed is 2.5.

Coastal Water Temperatures

Place Temperature

Stations

Nearby Weather Stations

Station Location Temp. Windchill Dew Point Humidity Wind Precip. Elev Updated Type